Time;durP1;ratioP1;P1;durP2;ratioP2;P2;SDS_P1;SDS_P2;PMS_P1;PMS_P2;Temp;Humidity;BMP_temperature;BMP_pressure;BME280_temperature;BME280_humidity;BME280_pressure;Samples;Min_cycle;Max_cycle;Signal;HPM_P1;HPM_P2
2023/07/03 00:02:10;;;;;;;19.10;3.65;;;;;;;;;;5069619;28;20057;-60
2023/07/03 00:04:37;;;;;;;23.15;4.60;;;;;;;;;;5081425;28;20509;-59
2023/07/03 00:07:05;;;;;;;13.52;3.67;;;;;;;;;;5081343;28;20049;-61
2023/07/03 00:09:31;;;;;;;21.60;4.32;;;;;;;;;;5077906;28;20122;-62
2023/07/03 00:11:58;;;;;;;14.48;4.38;;;;;;;;;;5075608;28;20053;-61
2023/07/03 00:14:24;;;;;;;10.90;3.67;;;;;;;;;;5080195;28;20098;-59
2023/07/03 00:16:51;;;;;;;14.13;3.55;;;;;;;;;;5082122;28;20059;-60
2023/07/03 00:19:18;;;;;;;14.32;3.35;;;;;;;;;;5082048;28;20049;-60
2023/07/03 00:21:44;;;;;;;20.08;4.22;;;;;;;;;;5079583;28;20055;-60
2023/07/03 00:24:11;;;;;;;14.60;3.90;;;;;;;;;;5081469;28;20057;-61
2023/07/03 00:26:37;;;;;;;17.13;3.67;;;;;;;;;;5078351;28;20049;-60
2023/07/03 00:29:04;;;;;;;17.65;3.83;;;;;;;;;;5079178;28;20052;-60
2023/07/03 00:31:31;;;;;;;20.38;3.75;;;;;;;;;;5077899;28;20052;-61
2023/07/03 00:33:58;;;;;;;17.98;4.20;;;;;;;;;;5081284;28;20414;-61
2023/07/03 00:36:24;;;;;;;17.70;4.07;;;;;;;;;;5081490;28;20056;-60
2023/07/03 00:38:57;;;;;;;13.98;3.45;;;;;;;;;;5073970;27;20542;-59
2023/07/03 00:41:24;;;;;;;17.48;3.92;;;;;;;;;;5092764;27;20596;-59
2023/07/03 00:43:51;;;;;;;14.38;3.55;;;;;;;;;;5063488;28;20112;-60
2023/07/03 00:46:17;;;;;;;16.45;3.78;;;;;;;;;;5078122;28;20491;-59
2023/07/03 00:48:44;;;;;;;15.10;4.20;;;;;;;;;;5080528;28;20064;-61
2023/07/03 00:51:11;;;;;;;14.90;3.58;;;;;;;;;;5078414;28;20150;-62
2023/07/03 00:53:37;;;;;;;11.30;3.38;;;;;;;;;;5080423;28;20080;-60
2023/07/03 00:56:04;;;;;;;16.02;3.55;;;;;;;;;;5076660;28;20056;-60
2023/07/03 00:58:30;;;;;;;15.07;4.20;;;;;;;;;;5071495;28;20056;-60
2023/07/03 01:01:01;;;;;;;13.50;3.38;;;;;;;;;;5074664;28;21718;-60
2023/07/03 01:03:39;;;;;;;18.73;3.83;;;;;;;;;;5066332;28;20425;-61
2023/07/03 01:06:08;;;;;;;11.98;3.50;;;;;;;;;;5074499;28;20057;-61
2023/07/03 01:08:35;;;;;;;21.27;4.57;;;;;;;;;;5075130;28;20057;-61
2023/07/03 01:11:02;;;;;;;13.95;3.53;;;;;;;;;;5070888;28;20506;-61
2023/07/03 01:13:29;;;;;;;17.52;3.90;;;;;;;;;;5072059;28;20128;-60
2023/07/03 01:15:57;;;;;;;21.20;4.38;;;;;;;;;;5085270;28;20056;-60
2023/07/03 01:18:25;;;;;;;14.40;3.88;;;;;;;;;;5084409;28;20048;-60
2023/07/03 01:20:55;;;;;;;18.85;3.97;;;;;;;;;;5078087;28;20048;-61
2023/07/03 01:23:39;;;;;;;15.75;4.50;;;;;;;;;;5083706;28;20510;-61
2023/07/03 01:26:07;;;;;;;21.73;3.95;;;;;;;;;;5083377;28;20060;-60
2023/07/03 01:28:35;;;;;;;21.70;3.75;;;;;;;;;;5083369;28;20057;-61
2023/07/03 01:31:07;;;;;;;18.75;3.85;;;;;;;;;;5081246;28;20115;-61
2023/07/03 01:33:34;;;;;;;14.75;3.40;;;;;;;;;;5083176;28;20134;-60
2023/07/03 01:36:01;;;;;;;20.27;4.05;;;;;;;;;;5081208;28;20151;-61
2023/07/03 01:38:29;;;;;;;10.57;4.20;;;;;;;;;;5081064;28;20055;-59
2023/07/03 01:40:56;;;;;;;17.20;3.65;;;;;;;;;;5084480;28;20425;-60
2023/07/03 01:43:23;;;;;;;20.80;4.72;;;;;;;;;;5083733;28;20078;-59
2023/07/03 01:45:49;;;;;;;20.45;4.22;;;;;;;;;;5084272;28;20082;-59
2023/07/03 01:48:17;;;;;;;14.63;3.92;;;;;;;;;;5069717;28;20112;-61
2023/07/03 01:50:45;;;;;;;18.40;3.72;;;;;;;;;;5082471;28;20904;-61
2023/07/03 01:53:21;;;;;;;22.05;4.93;;;;;;;;;;5082724;28;20433;-60
2023/07/03 01:55:55;;;;;;;18.83;4.10;;;;;;;;;;5081377;28;20057;-61
2023/07/03 01:58:21;;;;;;;20.20;5.13;;;;;;;;;;5071907;28;20518;-61
2023/07/03 02:00:53;;;;;;;23.17;4.28;;;;;;;;;;5077683;28;20510;-60
2023/07/03 02:03:23;;;;;;;19.92;5.63;;;;;;;;;;5077450;28;20056;-59
2023/07/03 02:05:51;;;;;;;19.55;4.13;;;;;;;;;;5083370;28;20485;-60
2023/07/03 02:08:19;;;;;;;19.13;4.75;;;;;;;;;;5082992;28;20052;-59
2023/07/03 02:10:45;;;;;;;19.67;4.50;;;;;;;;;;5067529;28;20118;-59
2023/07/03 02:13:12;;;;;;;16.10;3.53;;;;;;;;;;5068018;28;20053;-61
2023/07/03 02:15:38;;;;;;;19.77;4.10;;;;;;;;;;5082444;28;20084;-60
2023/07/03 02:18:04;;;;;;;21.35;4.18;;;;;;;;;;5082875;28;20083;-59
2023/07/03 02:20:32;;;;;;;19.75;5.57;;;;;;;;;;5083611;28;20132;-61
2023/07/03 02:22:58;;;;;;;24.65;4.90;;;;;;;;;;5083351;28;20558;-60
2023/07/03 02:25:25;;;;;;;19.52;4.80;;;;;;;;;;5083893;28;20147;-60
2023/07/03 02:27:51;;;;;;;20.02;3.70;;;;;;;;;;5083327;28;20048;-59
2023/07/03 02:30:18;;;;;;;26.10;5.40;;;;;;;;;;5074277;28;20061;-60
2023/07/03 02:32:44;;;;;;;19.70;5.47;;;;;;;;;;5074075;28;20060;-59
2023/07/03 02:35:11;;;;;;;14.02;4.20;;;;;;;;;;5083675;28;20056;-60
2023/07/03 02:37:37;;;;;;;23.40;6.90;;;;;;;;;;5081815;28;20052;-60
2023/07/03 02:40:13;;;;;;;19.48;4.30;;;;;;;;;;5078240;28;20132;-60
2023/07/03 02:42:39;;;;;;;16.17;3.60;;;;;;;;;;5065336;28;20791;-60
2023/07/03 02:45:06;;;;;;;19.08;5.97;;;;;;;;;;5082413;28;20133;-59
2023/07/03 02:47:34;;;;;;;21.35;4.75;;;;;;;;;;5081478;28;20048;-61
2023/07/03 02:50:01;;;;;;;21.00;4.38;;;;;;;;;;5079708;28;20076;-60
2023/07/03 02:52:27;;;;;;;20.35;4.35;;;;;;;;;;5083270;28;20099;-61
2023/07/03 02:54:54;;;;;;;20.05;4.20;;;;;;;;;;5080639;28;20137;-59
2023/07/03 02:57:20;;;;;;;16.33;3.90;;;;;;;;;;5077881;28;20170;-60
2023/07/03 02:59:47;;;;;;;19.63;4.15;;;;;;;;;;5081467;28;20520;-60
2023/07/03 03:02:13;;;;;;;19.17;4.78;;;;;;;;;;5078432;28;20078;-60
2023/07/03 03:04:40;;;;;;;22.17;4.65;;;;;;;;;;5079869;28;20576;-60
2023/07/03 03:07:06;;;;;;;19.63;4.72;;;;;;;;;;5083265;28;20578;-59
2023/07/03 03:09:33;;;;;;;20.13;4.85;;;;;;;;;;5082818;28;20507;-60
2023/07/03 03:11:59;;;;;;;16.23;3.83;;;;;;;;;;5083056;28;20053;-60
2023/07/03 03:14:26;;;;;;;17.85;5.28;;;;;;;;;;5071494;28;20088;-60
2023/07/03 03:16:53;;;;;;;18.60;3.88;;;;;;;;;;5082153;28;20052;-60
2023/07/03 03:19:20;;;;;;;19.92;4.55;;;;;;;;;;5080854;28;20136;-59
2023/07/03 03:21:49;;;;;;;19.00;4.45;;;;;;;;;;5082222;28;20144;-60
2023/07/03 03:24:16;;;;;;;16.88;4.18;;;;;;;;;;5080844;28;20145;-59
2023/07/03 03:26:43;;;;;;;15.13;4.13;;;;;;;;;;5081226;28;20517;-61
2023/07/03 03:29:09;;;;;;;14.60;3.63;;;;;;;;;;5080642;28;20465;-59
2023/07/03 03:31:35;;;;;;;17.10;5.00;;;;;;;;;;5071044;28;20139;-60
2023/07/03 03:34:02;;;;;;;21.27;3.90;;;;;;;;;;5066469;28;20077;-60
2023/07/03 03:36:28;;;;;;;17.52;3.95;;;;;;;;;;5067445;28;20059;-60
2023/07/03 03:38:54;;;;;;;20.02;3.72;;;;;;;;;;5080872;28;20060;-59
2023/07/03 03:41:21;;;;;;;19.15;4.47;;;;;;;;;;5080399;28;20083;-60
2023/07/03 03:43:47;;;;;;;18.77;4.22;;;;;;;;;;5081086;28;20053;-61
2023/07/03 03:46:14;;;;;;;22.10;5.03;;;;;;;;;;5081577;28;20389;-60
2023/07/03 03:48:40;;;;;;;18.00;4.15;;;;;;;;;;5079549;28;20270;-60
2023/07/03 03:51:07;;;;;;;26.17;5.13;;;;;;;;;;5073612;28;20123;-60
2023/07/03 03:53:33;;;;;;;13.15;3.50;;;;;;;;;;5068334;28;20056;-61
2023/07/03 03:55:59;;;;;;;20.63;3.22;;;;;;;;;;5073025;28;20082;-61
2023/07/03 03:58:26;;;;;;;12.38;3.22;;;;;;;;;;5078433;28;20110;-61
2023/07/03 04:00:52;;;;;;;15.30;3.70;;;;;;;;;;5074010;28;20103;-61
2023/07/03 04:03:19;;;;;;;14.75;3.13;;;;;;;;;;5083083;28;20106;-60
2023/07/03 04:05:46;;;;;;;17.33;3.50;;;;;;;;;;5082269;28;20561;-61
2023/07/03 04:08:12;;;;;;;9.43;3.45;;;;;;;;;;5078127;28;20563;-61
2023/07/03 04:10:39;;;;;;;15.65;4.90;;;;;;;;;;5071725;28;20106;-61
2023/07/03 04:13:06;;;;;;;11.55;2.83;;;;;;;;;;5071412;28;20055;-60
2023/07/03 04:15:33;;;;;;;12.18;3.63;;;;;;;;;;5081450;28;20060;-59
2023/07/03 04:18:00;;;;;;;7.03;2.35;;;;;;;;;;5082157;28;20515;-60
2023/07/03 04:20:27;;;;;;;17.15;5.03;;;;;;;;;;5071904;28;20049;-60
2023/07/03 04:22:54;;;;;;;9.73;2.95;;;;;;;;;;5081479;28;20484;-61
2023/07/03 04:25:21;;;;;;;9.20;2.58;;;;;;;;;;5077203;28;20505;-61
2023/07/03 04:27:48;;;;;;;11.73;2.88;;;;;;;;;;5081230;28;20150;-60
2023/07/03 04:30:15;;;;;;;8.98;2.50;;;;;;;;;;5081707;28;20057;-60
2023/07/03 04:32:42;;;;;;;15.23;3.30;;;;;;;;;;5073292;28;20178;-61
2023/07/03 04:35:08;;;;;;;11.80;2.67;;;;;;;;;;5074296;28;20143;-59
2023/07/03 04:37:36;;;;;;;7.78;2.42;;;;;;;;;;5077055;28;20056;-60
2023/07/03 04:40:03;;;;;;;11.02;1.80;;;;;;;;;;5079638;28;20056;-59
2023/07/03 04:42:32;;;;;;;11.07;2.40;;;;;;;;;;5065114;28;20056;-59
2023/07/03 04:45:00;;;;;;;7.80;1.70;;;;;;;;;;5069059;28;21738;-59
2023/07/03 04:47:26;;;;;;;4.63;1.70;;;;;;;;;;5064736;28;20111;-60
2023/07/03 04:49:55;;;;;;;5.55;2.13;;;;;;;;;;5062947;28;20107;-59
2023/07/03 04:52:27;;;;;;;5.60;1.83;;;;;;;;;;5064600;28;20049;-59
2023/07/03 04:54:54;;;;;;;6.25;1.98;;;;;;;;;;5065087;28;20053;-59
2023/07/03 04:57:21;;;;;;;4.97;1.63;;;;;;;;;;5049183;28;20305;-61
2023/07/03 04:59:48;;;;;;;9.07;1.80;;;;;;;;;;5057253;28;20115;-61
2023/07/03 05:02:17;;;;;;;3.20;1.35;;;;;;;;;;5058942;28;20510;-61
2023/07/03 05:04:45;;;;;;;8.50;2.28;;;;;;;;;;5063394;28;20056;-59
2023/07/03 05:07:11;;;;;;;4.43;1.92;;;;;;;;;;5064320;28;20321;-60
2023/07/03 05:09:38;;;;;;;6.25;1.60;;;;;;;;;;5057824;28;20049;-59
2023/07/03 05:12:04;;;;;;;13.65;1.70;;;;;;;;;;5062643;28;20515;-60
2023/07/03 05:14:31;;;;;;;6.97;1.50;;;;;;;;;;5059872;28;20608;-61
2023/07/03 05:16:57;;;;;;;5.35;1.58;;;;;;;;;;5063293;28;20089;-61
2023/07/03 05:19:24;;;;;;;5.82;1.40;;;;;;;;;;5058151;28;20053;-60
2023/07/03 05:21:51;;;;;;;11.90;2.45;;;;;;;;;;5055559;28;20048;-60
2023/07/03 05:24:17;;;;;;;8.27;1.55;;;;;;;;;;5065186;28;20505;-59
2023/07/03 05:26:44;;;;;;;9.35;1.25;;;;;;;;;;5052853;28;20586;-59
2023/07/03 05:29:11;;;;;;;5.05;1.65;;;;;;;;;;5062808;28;20080;-60
2023/07/03 05:31:37;;;;;;;6.72;1.50;;;;;;;;;;5057550;28;20564;-60
2023/07/03 05:34:04;;;;;;;7.68;1.90;;;;;;;;;;5050945;28;20147;-60
2023/07/03 05:36:31;;;;;;;6.40;1.50;;;;;;;;;;5060513;28;20053;-60
2023/07/03 05:38:57;;;;;;;6.55;1.67;;;;;;;;;;5055045;28;20059;-60
2023/07/03 05:41:24;;;;;;;8.00;2.35;;;;;;;;;;5063245;28;20060;-61
2023/07/03 05:43:50;;;;;;;4.70;1.50;;;;;;;;;;5062464;28;20138;-60
2023/07/03 05:46:17;;;;;;;4.65;1.60;;;;;;;;;;5066599;28;20060;-61
2023/07/03 05:48:45;;;;;;;5.97;1.30;;;;;;;;;;5076376;28;20576;-61
2023/07/03 05:51:11;;;;;;;5.88;1.65;;;;;;;;;;5084081;27;20048;-59
2023/07/03 05:53:37;;;;;;;8.57;1.52;;;;;;;;;;5081134;28;20111;-60
2023/07/03 05:56:04;;;;;;;10.50;1.83;;;;;;;;;;5081914;28;20052;-61
2023/07/03 05:58:31;;;;;;;5.30;1.33;;;;;;;;;;5082169;27;20049;-60
2023/07/03 06:00:58;;;;;;;7.22;1.90;;;;;;;;;;5083686;28;20149;-60
2023/07/03 06:03:25;;;;;;;5.15;1.23;;;;;;;;;;5084613;28;20118;-60
2023/07/03 06:05:52;;;;;;;5.25;1.40;;;;;;;;;;5084681;28;20052;-60
2023/07/03 06:08:19;;;;;;;9.23;2.28;;;;;;;;;;5085946;28;20629;-60
2023/07/03 06:10:46;;;;;;;4.53;1.20;;;;;;;;;;5084396;27;20055;-59
2023/07/03 06:13:13;;;;;;;5.35;1.40;;;;;;;;;;5084191;28;20110;-60
2023/07/03 06:15:40;;;;;;;9.55;2.88;;;;;;;;;;5083593;28;20062;-60
2023/07/03 06:18:06;;;;;;;8.55;2.28;;;;;;;;;;5083643;28;20695;-59
2023/07/03 06:20:34;;;;;;;5.30;2.00;;;;;;;;;;5083727;28;20057;-60
2023/07/03 06:23:00;;;;;;;6.97;2.00;;;;;;;;;;5083338;28;20516;-60
2023/07/03 06:25:27;;;;;;;6.18;2.45;;;;;;;;;;5083050;28;20134;-59
2023/07/03 06:27:53;;;;;;;8.85;2.67;;;;;;;;;;5083787;28;20056;-60
2023/07/03 06:30:20;;;;;;;6.22;1.80;;;;;;;;;;5084228;28;20060;-60
2023/07/03 06:32:46;;;;;;;11.95;3.72;;;;;;;;;;5083476;28;20053;-59
2023/07/03 06:35:13;;;;;;;5.05;1.30;;;;;;;;;;5084032;28;20084;-59
2023/07/03 06:37:40;;;;;;;4.55;1.42;;;;;;;;;;5083423;28;20526;-59
2023/07/03 06:40:09;;;;;;;4.75;1.70;;;;;;;;;;5075856;28;20502;-59
2023/07/03 06:42:37;;;;;;;6.05;1.73;;;;;;;;;;5076531;28;20510;-60
2023/07/03 06:45:04;;;;;;;6.47;1.65;;;;;;;;;;5083779;28;20419;-60
2023/07/03 06:47:30;;;;;;;10.90;2.25;;;;;;;;;;5082820;28;20506;-59
2023/07/03 06:49:57;;;;;;;6.05;1.98;;;;;;;;;;5083510;28;20063;-60
2023/07/03 06:52:23;;;;;;;3.78;1.40;;;;;;;;;;5082638;28;20051;-60
2023/07/03 06:54:50;;;;;;;5.60;1.80;;;;;;;;;;5080932;28;20083;-59
2023/07/03 06:57:16;;;;;;;3.65;1.20;;;;;;;;;;5083638;28;20044;-61
2023/07/03 06:59:42;;;;;;;8.32;1.80;;;;;;;;;;5085585;28;20167;-60
2023/07/03 07:02:09;;;;;;;4.68;1.27;;;;;;;;;;5081439;28;20102;-60
2023/07/03 07:04:35;;;;;;;4.75;1.25;;;;;;;;;;5085525;28;20158;-59
2023/07/03 07:07:02;;;;;;;5.32;1.10;;;;;;;;;;5085710;28;20139;-60
2023/07/03 07:09:29;;;;;;;7.65;1.88;;;;;;;;;;5081381;28;20611;-60
2023/07/03 07:11:55;;;;;;;5.82;1.33;;;;;;;;;;5062560;28;20515;-60
2023/07/03 07:14:21;;;;;;;7.60;1.88;;;;;;;;;;5080628;28;20060;-60
2023/07/03 07:16:48;;;;;;;8.05;1.65;;;;;;;;;;5078742;28;20057;-60
2023/07/03 07:19:14;;;;;;;9.95;3.00;;;;;;;;;;5082847;28;20099;-59
2023/07/03 07:21:41;;;;;;;6.75;1.60;;;;;;;;;;5082319;28;20088;-60
2023/07/03 07:24:12;;;;;;;11.98;1.75;;;;;;;;;;5082776;28;20152;-60
2023/07/03 07:26:38;;;;;;;5.07;1.77;;;;;;;;;;5082593;28;20083;-59
2023/07/03 07:29:05;;;;;;;10.55;1.58;;;;;;;;;;5081404;28;20088;-60
2023/07/03 07:31:32;;;;;;;10.75;2.20;;;;;;;;;;5081093;28;20103;-60
2023/07/03 07:33:59;;;;;;;8.23;1.77;;;;;;;;;;5082439;28;20109;-60
2023/07/03 07:36:26;;;;;;;4.82;1.52;;;;;;;;;;5082236;28;20087;-59
2023/07/03 07:38:53;;;;;;;7.07;2.42;;;;;;;;;;5083207;28;20084;-60
2023/07/03 07:41:22;;;;;;;5.55;1.48;;;;;;;;;;5082313;28;20502;-60
2023/07/03 07:43:50;;;;;;;6.97;1.60;;;;;;;;;;5082618;28;20049;-59
2023/07/03 07:46:17;;;;;;;6.43;1.50;;;;;;;;;;5081797;28;20140;-60
2023/07/03 07:48:45;;;;;;;5.35;1.30;;;;;;;;;;5081500;28;20063;-59
2023/07/03 07:51:12;;;;;;;10.38;2.05;;;;;;;;;;5081915;28;20103;-61
2023/07/03 07:53:39;;;;;;;4.57;1.50;;;;;;;;;;5082230;28;20085;-61
2023/07/03 07:56:06;;;;;;;11.13;2.20;;;;;;;;;;5081508;28;20053;-60
2023/07/03 07:58:33;;;;;;;5.60;1.67;;;;;;;;;;5082153;28;20510;-60
2023/07/03 08:01:01;;;;;;;6.20;1.85;;;;;;;;;;5083349;28;20300;-60
2023/07/03 08:03:27;;;;;;;8.93;1.73;;;;;;;;;;5082360;28;20574;-60
2023/07/03 08:05:58;;;;;;;6.22;1.70;;;;;;;;;;5081901;28;20060;-60
2023/07/03 08:08:26;;;;;;;7.55;2.55;;;;;;;;;;5082178;28;20056;-61
2023/07/03 08:10:53;;;;;;;8.30;1.98;;;;;;;;;;5080233;28;20053;-61
2023/07/03 08:13:20;;;;;;;7.13;1.52;;;;;;;;;;5082585;28;20048;-61
2023/07/03 08:15:46;;;;;;;8.50;1.85;;;;;;;;;;5080935;28;20049;-61
2023/07/03 08:18:14;;;;;;;8.30;1.92;;;;;;;;;;5082337;28;20495;-61
2023/07/03 08:20:41;;;;;;;3.88;1.20;;;;;;;;;;5080302;28;20056;-60
2023/07/03 08:23:08;;;;;;;10.23;1.60;;;;;;;;;;5084810;27;20151;-61
2023/07/03 08:25:34;;;;;;;7.90;1.48;;;;;;;;;;5084840;28;20057;-61
2023/07/03 08:28:01;;;;;;;6.60;1.63;;;;;;;;;;5088251;28;20511;-62
2023/07/03 08:30:28;;;;;;;4.88;1.63;;;;;;;;;;5087348;27;20049;-60
2023/07/03 08:32:54;;;;;;;6.15;1.52;;;;;;;;;;5085977;28;20048;-61
2023/07/03 08:35:21;;;;;;;4.15;1.20;;;;;;;;;;5083765;28;20060;-60
2023/07/03 08:37:52;;;;;;;7.80;1.83;;;;;;;;;;5085928;28;20130;-60
2023/07/03 08:40:20;;;;;;;7.43;1.75;;;;;;;;;;5081818;28;20057;-61
2023/07/03 08:42:54;;;;;;;7.20;1.75;;;;;;;;;;5082913;28;20061;-59
2023/07/03 08:45:22;;;;;;;8.13;1.73;;;;;;;;;;5077982;28;20083;-60
2023/07/03 08:47:50;;;;;;;7.93;2.13;;;;;;;;;;5080831;28;20086;-61
2023/07/03 08:50:18;;;;;;;8.77;1.98;;;;;;;;;;5083564;28;20076;-58
2023/07/03 08:53:03;;;;;;;8.40;2.13;;;;;;;;;;5085241;28;20209;-61
2023/07/03 08:55:33;;;;;;;4.10;1.40;;;;;;;;;;5084721;28;20138;-60
2023/07/03 08:58:00;;;;;;;6.28;1.35;;;;;;;;;;5067043;28;20136;-61
2023/07/03 09:00:28;;;;;;;5.13;1.33;;;;;;;;;;5084392;28;20091;-61
2023/07/03 09:03:02;;;;;;;7.43;1.50;;;;;;;;;;5085119;28;20098;-61
2023/07/03 09:05:31;;;;;;;2.92;1.10;;;;;;;;;;5064838;28;20103;-60
2023/07/03 09:08:03;;;;;;;3.15;1.05;;;;;;;;;;5064967;28;20053;-60
2023/07/03 09:10:36;;;;;;;7.53;1.92;;;;;;;;;;5079375;28;20540;-60
2023/07/03 09:13:07;;;;;;;8.13;1.77;;;;;;;;;;5083535;28;20055;-60
2023/07/03 09:15:36;;;;;;;3.45;1.30;;;;;;;;;;5064545;28;20093;-60
2023/07/03 09:18:08;;;;;;;5.65;1.27;;;;;;;;;;5062936;28;20673;-60
2023/07/03 09:20:35;;;;;;;5.50;1.50;;;;;;;;;;5084414;28;20473;-60
2023/07/03 09:23:06;;;;;;;4.45;1.30;;;;;;;;;;5084706;28;20063;-59
2023/07/03 09:25:41;;;;;;;6.45;1.85;;;;;;;;;;5084131;28;20087;-60
2023/07/03 09:28:09;;;;;;;9.32;1.58;;;;;;;;;;5078746;28;20132;-60
2023/07/03 09:30:38;;;;;;;8.13;2.17;;;;;;;;;;5064834;28;20045;-61
2023/07/03 09:33:08;;;;;;;7.15;2.08;;;;;;;;;;5063435;28;20491;-58
2023/07/03 09:35:36;;;;;;;4.03;1.52;;;;;;;;;;5083337;28;20048;-58
2023/07/03 09:38:05;;;;;;;5.43;1.50;;;;;;;;;;5083701;28;20137;-58
2023/07/03 09:40:34;;;;;;;7.60;1.95;;;;;;;;;;5083831;28;20052;-59
2023/07/03 09:43:00;;;;;;;4.05;1.33;;;;;;;;;;5084270;28;20079;-59
2023/07/03 09:45:33;;;;;;;3.10;0.95;;;;;;;;;;5083958;28;20060;-59
2023/07/03 09:48:01;;;;;;;1.85;1.02;;;;;;;;;;5084000;28;20469;-58
2023/07/03 09:50:36;;;;;;;3.05;1.20;;;;;;;;;;5088452;27;20049;-59
2023/07/03 09:53:04;;;;;;;3.15;1.25;;;;;;;;;;5081106;28;20053;-61
2023/07/03 09:55:35;;;;;;;3.55;1.13;;;;;;;;;;5083990;28;20063;-59
2023/07/03 09:58:09;;;;;;;7.38;1.33;;;;;;;;;;5084199;28;20140;-59
2023/07/03 10:00:41;;;;;;;3.55;1.77;;;;;;;;;;5083290;28;20909;-59
2023/07/03 10:03:10;;;;;;;4.15;1.38;;;;;;;;;;5073099;28;20063;-59
2023/07/03 10:05:41;;;;;;;5.65;1.20;;;;;;;;;;5076554;28;20146;-59
2023/07/03 10:08:10;;;;;;;5.43;1.25;;;;;;;;;;5084144;28;20087;-59
2023/07/03 10:10:37;;;;;;;5.55;1.48;;;;;;;;;;5101903;27;20052;-59
2023/07/03 10:13:12;;;;;;;5.18;1.38;;;;;;;;;;5086218;28;20056;-60
2023/07/03 10:15:39;;;;;;;4.13;1.35;;;;;;;;;;5082604;28;20057;-59
2023/07/03 10:18:15;;;;;;;8.05;1.52;;;;;;;;;;5084948;28;20123;-58
2023/07/03 10:20:43;;;;;;;4.57;1.42;;;;;;;;;;5081788;28;20052;-59
2023/07/03 10:23:11;;;;;;;3.85;1.23;;;;;;;;;;5082551;28;20076;-59
2023/07/03 10:25:39;;;;;;;7.40;1.55;;;;;;;;;;5074413;28;20497;-59
2023/07/03 10:28:08;;;;;;;5.68;1.40;;;;;;;;;;5069211;28;20048;-59
2023/07/03 10:30:36;;;;;;;5.72;1.50;;;;;;;;;;5083537;28;20056;-59
2023/07/03 10:33:03;;;;;;;8.05;2.00;;;;;;;;;;5084212;28;20059;-58
2023/07/03 10:35:32;;;;;;;9.27;1.83;;;;;;;;;;5083671;28;20052;-58
2023/07/03 10:38:08;;;;;;;5.97;1.60;;;;;;;;;;5083389;28;20072;-59
2023/07/03 10:40:39;;;;;;;9.60;3.17;;;;;;;;;;5078715;28;20052;-59
2023/07/03 10:43:07;;;;;;;4.10;1.15;;;;;;;;;;5083407;28;20498;-58
2023/07/03 10:45:36;;;;;;;4.18;1.27;;;;;;;;;;5081965;28;20052;-58
2023/07/03 10:48:05;;;;;;;4.97;1.60;;;;;;;;;;5082845;28;20076;-58
2023/07/03 10:50:36;;;;;;;6.45;1.45;;;;;;;;;;5082929;28;20056;-59
2023/07/03 10:53:06;;;;;;;7.15;1.70;;;;;;;;;;5070962;28;20493;-60
2023/07/03 10:55:44;;;;;;;4.03;1.33;;;;;;;;;;5072500;28;20053;-60
2023/07/03 10:58:10;;;;;;;5.22;2.13;;;;;;;;;;5080467;28;20455;-59
2023/07/03 11:00:45;;;;;;;3.92;1.40;;;;;;;;;;5082631;28;20048;-60
2023/07/03 11:03:20;;;;;;;3.58;1.40;;;;;;;;;;5083172;28;20122;-59
2023/07/03 11:05:50;;;;;;;6.32;1.50;;;;;;;;;;5081196;28;20509;-60
2023/07/03 11:08:20;;;;;;;4.30;1.60;;;;;;;;;;5063116;28;20053;-60
2023/07/03 11:10:55;;;;;;;6.55;1.90;;;;;;;;;;5083028;28;20052;-59
2023/07/03 11:13:28;;;;;;;3.75;1.38;;;;;;;;;;5083577;28;20110;-58
2023/07/03 11:15:55;;;;;;;5.13;1.63;;;;;;;;;;5079593;27;20489;-59
2023/07/03 11:18:21;;;;;;;7.50;1.73;;;;;;;;;;5082984;28;20506;-60
2023/07/03 11:20:56;;;;;;;3.80;1.23;;;;;;;;;;5083050;28;20053;-60
2023/07/03 11:23:43;;;;;;;4.13;1.90;;;;;;;;;;5093162;27;20056;-61
2023/07/03 11:26:19;;;;;;;6.88;2.05;;;;;;;;;;5081367;28;20592;-59
2023/07/03 11:28:49;;;;;;;7.47;1.90;;;;;;;;;;5073502;28;20614;-60
2023/07/03 11:31:16;;;;;;;4.80;1.52;;;;;;;;;;5067536;28;20076;-59
2023/07/03 11:33:44;;;;;;;8.45;1.77;;;;;;;;;;5076473;28;20076;-60
2023/07/03 11:36:37;;;;;;;8.75;2.65;;;;;;;;;;5080507;28;20091;-60
2023/07/03 11:39:20;;;;;;;10.00;1.85;;;;;;;;;;5081030;28;20106;-61
2023/07/03 11:42:01;;;;;;;6.05;1.70;;;;;;;;;;5082572;27;20060;-60
2023/07/03 11:44:32;;;;;;;3.17;1.42;;;;;;;;;;5078102;28;20113;-61
2023/07/03 11:47:06;;;;;;;6.20;2.10;;;;;;;;;;5083297;28;20505;-61
2023/07/03 11:49:35;;;;;;;4.43;1.40;;;;;;;;;;5085506;28;20059;-60
2023/07/03 11:52:04;;;;;;;8.10;2.33;;;;;;;;;;5082112;28;20057;-61
2023/07/03 11:54:35;;;;;;;5.97;1.92;;;;;;;;;;5082319;28;20137;-61
2023/07/03 11:57:27;;;;;;;10.00;1.73;;;;;;;;;;5082025;28;20058;-62
2023/07/03 12:00:11;;;;;;;5.47;1.58;;;;;;;;;;5070205;28;20510;-62
2023/07/03 12:02:38;;;;;;;4.43;1.52;;;;;;;;;;5083050;28;20722;-60
2023/07/03 12:05:05;;;;;;;4.00;1.17;;;;;;;;;;5082120;28;20075;-61
2023/07/03 12:07:35;;;;;;;5.15;1.40;;;;;;;;;;5082576;28;20057;-62
2023/07/03 12:10:17;;;;;;;5.07;1.60;;;;;;;;;;5082604;28;20568;-61
2023/07/03 12:12:49;;;;;;;5.13;1.20;;;;;;;;;;5082256;28;20068;-60
2023/07/03 12:15:17;;;;;;;3.08;1.35;;;;;;;;;;5082004;28;20049;-60
2023/07/03 12:17:44;;;;;;;9.10;1.73;;;;;;;;;;5081513;28;20140;-60
2023/07/03 12:20:13;;;;;;;5.30;1.13;;;;;;;;;;5082526;28;20063;-61
2023/07/03 12:22:41;;;;;;;6.80;1.60;;;;;;;;;;5080786;28;20172;-60
2023/07/03 12:25:08;;;;;;;7.47;1.63;;;;;;;;;;5081908;28;20087;-61
2023/07/03 12:27:35;;;;;;;6.10;2.25;;;;;;;;;;5082193;28;20053;-61
2023/07/03 12:30:02;;;;;;;9.45;1.98;;;;;;;;;;5082167;28;20079;-61
2023/07/03 12:32:30;;;;;;;8.10;2.03;;;;;;;;;;5081913;28;20329;-60
2023/07/03 12:35:14;;;;;;;7.93;1.67;;;;;;;;;;5080636;28;20108;-61
2023/07/03 12:37:44;;;;;;;6.00;1.35;;;;;;;;;;5085445;28;20060;-61
2023/07/03 12:40:12;;;;;;;5.68;1.95;;;;;;;;;;5087034;27;20118;-61
2023/07/03 12:42:38;;;;;;;4.60;1.35;;;;;;;;;;5060719;28;20088;-61
2023/07/03 12:45:13;;;;;;;2.97;1.40;;;;;;;;;;5082914;28;20135;-61
2023/07/03 12:47:40;;;;;;;2.97;0.98;;;;;;;;;;5083464;27;20056;-61
2023/07/03 12:50:11;;;;;;;7.68;2.75;;;;;;;;;;5081004;28;20147;-60
2023/07/03 12:52:38;;;;;;;8.68;2.85;;;;;;;;;;5081397;28;20373;-60
2023/07/03 12:55:05;;;;;;;3.78;1.30;;;;;;;;;;5085190;27;20056;-61
2023/07/03 12:57:41;;;;;;;5.28;1.10;;;;;;;;;;5096621;27;20082;-61
2023/07/03 13:00:14;;;;;;;4.22;1.00;;;;;;;;;;5080027;28;20502;-60
2023/07/03 13:02:42;;;;;;;7.75;1.45;;;;;;;;;;5064029;28;20064;-60
2023/07/03 13:05:10;;;;;;;3.25;0.90;;;;;;;;;;5079759;28;20053;-61
2023/07/03 13:07:40;;;;;;;4.47;1.20;;;;;;;;;;5089223;28;20063;-60
2023/07/03 13:10:09;;;;;;;5.35;1.08;;;;;;;;;;5083130;28;20136;-61
2023/07/03 13:12:35;;;;;;;2.90;1.23;;;;;;;;;;5082364;28;20607;-61
2023/07/03 13:15:02;;;;;;;7.43;1.30;;;;;;;;;;5084015;28;20847;-61
2023/07/03 13:17:30;;;;;;;6.53;0.90;;;;;;;;;;5082578;28;20076;-61
2023/07/03 13:20:35;;;;;;;3.10;1.17;;;;;;;;;;5082694;28;20060;-62
2023/07/03 13:23:05;;;;;;;4.03;0.93;;;;;;;;;;5010881;28;20719;-61
2023/07/03 13:25:35;;;;;;;3.63;0.82;;;;;;;;;;5020203;28;20411;-60
2023/07/03 13:28:06;;;;;;;5.43;0.85;;;;;;;;;;5021210;28;20647;-61
2023/07/03 13:30:35;;;;;;;9.77;1.45;;;;;;;;;;5016312;28;20046;-60
2023/07/03 13:33:04;;;;;;;7.07;1.60;;;;;;;;;;5019811;28;20064;-60
2023/07/03 13:35:35;;;;;;;4.35;0.82;;;;;;;;;;5020016;28;20539;-61
2023/07/03 13:38:21;;;;;;;5.05;1.90;;;;;;;;;;5021117;28;20058;-60
2023/07/03 13:40:48;;;;;;;1.70;1.00;;;;;;;;;;5008838;28;20085;-60
2023/07/03 13:43:22;;;;;;;6.95;1.25;;;;;;;;;;5019194;28;20133;-60
2023/07/03 13:45:49;;;;;;;4.72;1.52;;;;;;;;;;5005540;28;20469;-60
2023/07/03 13:48:17;;;;;;;3.30;0.93;;;;;;;;;;5001057;28;20062;-61
2023/07/03 13:50:44;;;;;;;5.43;1.30;;;;;;;;;;5016713;28;20150;-60
2023/07/03 13:53:10;;;;;;;9.70;1.52;;;;;;;;;;5034073;28;20081;-60
2023/07/03 13:55:37;;;;;;;2.95;1.05;;;;;;;;;;5083698;28;20051;-61
2023/07/03 13:58:04;;;;;;;6.28;1.48;;;;;;;;;;5084266;28;20137;-61
2023/07/03 14:00:30;;;;;;;6.45;1.58;;;;;;;;;;5081950;28;20848;-61
2023/07/03 14:02:57;;;;;;;4.30;1.52;;;;;;;;;;5090277;28;20052;-60
2023/07/03 14:05:23;;;;;;;2.40;1.05;;;;;;;;;;5072082;28;20053;-61
2023/07/03 14:07:50;;;;;;;3.97;1.02;;;;;;;;;;5092154;28;20336;-61
2023/07/03 14:10:16;;;;;;;3.10;0.98;;;;;;;;;;5082277;28;20570;-60
2023/07/03 14:12:43;;;;;;;3.08;0.70;;;;;;;;;;5082738;28;20083;-60
2023/07/03 14:15:15;;;;;;;4.82;1.63;;;;;;;;;;5082404;28;20059;-61
2023/07/03 14:17:41;;;;;;;3.53;1.23;;;;;;;;;;5082773;28;20056;-61
2023/07/03 14:20:11;;;;;;;7.07;1.35;;;;;;;;;;5083097;28;20052;-59
2023/07/03 14:22:38;;;;;;;8.35;1.40;;;;;;;;;;5072825;28;20143;-60
2023/07/03 14:25:07;;;;;;;6.88;1.88;;;;;;;;;;5082227;28;20060;-61
2023/07/03 14:27:34;;;;;;;3.97;1.27;;;;;;;;;;5082960;28;20143;-60
2023/07/03 14:30:01;;;;;;;6.18;1.77;;;;;;;;;;5081762;28;20136;-61
2023/07/03 14:32:27;;;;;;;2.20;1.23;;;;;;;;;;5083104;27;20161;-61
2023/07/03 14:35:14;;;;;;;4.85;1.40;;;;;;;;;;5080549;28;20060;-61
2023/07/03 14:37:40;;;;;;;3.95;1.35;;;;;;;;;;5089408;28;20152;-61
2023/07/03 14:40:07;;;;;;;6.97;2.00;;;;;;;;;;5081513;28;20151;-61
2023/07/03 14:42:33;;;;;;;5.35;1.52;;;;;;;;;;5082240;28;20049;-60
2023/07/03 14:44:59;;;;;;;6.32;1.25;;;;;;;;;;5082263;28;20175;-60
2023/07/03 14:47:26;;;;;;;10.55;2.65;;;;;;;;;;5079139;28;20048;-60